Crane Lake, MN

7:46 AM CDT on May 20, 2018 (GMT -0500)
Crane Lake

Weather History for KCDD - June, 2013

Change the Weather History Date:

Sunday, June 9, 2013

  Actual Average Record
Temperature  
Mean Temperature 53 °F -  
Max Temperature 69 °F 67 °F 87 °F (2012)
Min Temperature 37 °F 45 °F 30 °F (2011)
Degree Days  
Heating Degree Days 12    
Growing Degree Days 3 (Base 50)    
Moisture  
Dew Point 46 °F    
Average Humidity 78    
Maximum Humidity 100    
Minimum Humidity 43    
Precipitation  
Precipitation 0.30 in - - ()
Sea Level Pressure  
Sea Level Pressure 29.98 in    
Wind  
Wind Speed 1 mph (SE)    
Max Wind Speed 8 mph    
Max Gust Speed -    
Visibility 8 miles    
Events Rain    
Averages and records for this station are not official NWS values.
T = Trace of Precipitation, MM = Missing Value Source: NWS Daily Summary

Daily Weather History Graph

Daily Weather History Graph

Search for Another Location

Airport or City:

Astronomy

Jun. 09, 2013 Rise Set
Actual Time 5:09 AM CDT 9:09 PM CDT
Civil Twilight 4:28 AM CDT 9:50 PM CDT
Nautical Twilight 3:31 AM CDT 10:47 PM CDT
Astronomical Twilight 1:56 AM CDT 12:24 AM CDT
Moon 6:11 AM CDT (6/9) 9:50 PM CDT (6/9)
Length of Visible Light 17h 22m
Length of Day
15h 59m
New Moon, 1% of the Moon is Illuminated
Jun 9
New Moon
Jun 16
First Quarter
Jun 23
Full
Jun 29
Last Quarter
Jul 8
New

Hourly Weather History & Observations

Time (CDT) Temp. Dew Point Humidity Pressure Visibility Wind Dir Wind Speed Gust Speed Precip Events Conditions
12:13 AM 44.6 °F 39.2 °F 81% 29.99 in 10.0 mi Calm Calm - N/A   Clear
12:33 AM 42.8 °F 37.4 °F 81% - 10.0 mi Calm Calm - N/A   Clear
12:53 AM 42.8 °F 37.4 °F 81% 30.00 in 7.0 mi Calm Calm - N/A   Clear
1:13 AM 41.0 °F 37.4 °F 87% 30.00 in 5.0 mi Calm Calm - N/A   Clear
1:33 AM 41.0 °F 37.4 °F 87% 30.00 in 7.0 mi Calm Calm - N/A   Clear
1:53 AM 41.0 °F 37.4 °F 87% 30.01 in 10.0 mi Calm Calm - N/A   Clear
2:13 AM 39.2 °F 37.4 °F 93% 30.02 in 10.0 mi Calm Calm - N/A   Clear
2:33 AM 39.2 °F 37.4 °F 93% 30.02 in 10.0 mi Calm Calm - N/A   Clear
2:53 AM 39.2 °F 37.4 °F 93% 30.01 in 10.0 mi Calm Calm - N/A   Clear
3:13 AM 39.2 °F 37.4 °F 93% 30.01 in 10.0 mi Calm Calm - N/A   Clear
3:33 AM 39.2 °F 35.6 °F 87% 30.00 in 10.0 mi Calm Calm - N/A   Clear
3:53 AM 37.4 °F 35.6 °F 93% 30.01 in 10.0 mi Calm Calm - N/A   Clear
4:13 AM 37.4 °F 35.6 °F 93% 30.01 in 10.0 mi Calm Calm - N/A   Clear
4:33 AM 37.4 °F 35.6 °F 93% 30.01 in 10.0 mi Calm Calm - N/A   Clear
4:53 AM 37.4 °F 35.6 °F 93% 30.01 in 10.0 mi Calm Calm - N/A   Clear
5:13 AM 37.4 °F 35.6 °F 93% 30.01 in 10.0 mi Calm Calm - N/A   Clear
5:33 AM 37.4 °F 35.6 °F 93% 30.01 in 10.0 mi Calm Calm - N/A   Clear
5:53 AM 39.2 °F 35.6 °F 87% 30.01 in 7.0 mi Calm Calm - N/A   Clear
6:13 AM 39.2 °F 37.4 °F 93% 30.01 in 10.0 mi Calm Calm - N/A   Clear
6:33 AM 42.8 °F 39.2 °F 87% 30.01 in 10.0 mi Calm Calm - N/A   Clear
6:53 AM 46.4 °F 44.6 °F 93% 30.01 in 10.0 mi Calm Calm - N/A   Clear
7:13 AM 48.2 °F 46.4 °F 93% 30.02 in 10.0 mi Calm Calm - N/A   Clear
7:33 AM 51.8 °F 50.0 °F 94% 30.01 in 10.0 mi Calm Calm - N/A   Clear
7:53 AM 55.4 °F 51.8 °F 88% 30.01 in 10.0 mi Calm Calm - N/A   Clear
8:13 AM 57.2 °F 53.6 °F 88% 30.01 in 7.0 mi Calm Calm - N/A   Clear
8:33 AM 57.2 °F 51.8 °F 82% 30.01 in 10.0 mi Calm Calm - N/A   Clear
8:53 AM 60.8 °F 51.8 °F 72% 30.00 in 7.0 mi Calm Calm - N/A   Clear
9:13 AM 60.8 °F 51.8 °F 72% 30.00 in 10.0 mi Calm Calm - N/A   Clear
9:33 AM 62.6 °F 51.8 °F 68% 30.00 in 7.0 mi Calm Calm - N/A   Clear
9:53 AM 64.4 °F 53.6 °F 68% 30.00 in 10.0 mi Calm Calm - N/A   Clear
10:13 AM 68.0 °F 50.0 °F 52% 30.00 in 10.0 mi South 5.8 mph - N/A   Clear
10:33 AM 66.2 °F 46.4 °F 49% 30.00 in 10.0 mi SSE 6.9 mph - N/A   Clear
10:53 AM 68.0 °F 48.2 °F 49% 29.99 in 10.0 mi SE 3.5 mph - N/A   Clear
11:13 AM 69.8 °F 48.2 °F 46% 29.99 in 10.0 mi SE 5.8 mph - N/A   Clear
11:33 AM 69.8 °F 48.2 °F 46% 29.99 in 10.0 mi Calm Calm - N/A   Clear
11:53 AM 69.8 °F 48.2 °F 46% 29.98 in 10.0 mi SE 3.5 mph - N/A   Clear
12:13 PM 69.8 °F 48.2 °F 46% 29.99 in 10.0 mi Calm Calm - N/A   Clear
12:33 PM 69.8 °F 48.2 °F 46% 29.99 in 10.0 mi SSE 4.6 mph - N/A   Clear
12:53 PM 69.8 °F 48.2 °F 46% 29.99 in 10.0 mi SE 3.5 mph - N/A   Mostly Cloudy
1:13 PM 69.8 °F 48.2 °F 46% 29.98 in 10.0 mi SSE 3.5 mph - N/A   Mostly Cloudy
1:33 PM 69.8 °F 46.4 °F 43% 29.98 in 10.0 mi SSE 6.9 mph - N/A   Mostly Cloudy
1:53 PM 68.0 °F 44.6 °F 43% 29.98 in 10.0 mi SE 3.5 mph - N/A   Mostly Cloudy
2:13 PM 66.2 °F 46.4 °F 49% 29.99 in 10.0 mi SE 3.5 mph - N/A   Mostly Cloudy
2:33 PM 66.2 °F 44.6 °F 46% 29.99 in 10.0 mi SE 8.1 mph - N/A   Scattered Clouds
2:53 PM 64.4 °F 46.4 °F 52% 29.99 in 10.0 mi South 6.9 mph - N/A   Light Drizzle
3:13 PM 62.6 °F 48.2 °F 59% 29.99 in 10.0 mi South 5.8 mph - N/A Rain Light Rain
3:33 PM 62.6 °F 50.0 °F 63% 29.99 in 10.0 mi SSE 5.8 mph - N/A   Light Drizzle
3:53 PM 64.4 °F 50.0 °F 59% 29.98 in 10.0 mi ESE 5.8 mph - N/A Rain Light Rain
4:13 PM 62.6 °F 48.2 °F 59% 29.98 in 10.0 mi SE 5.8 mph - N/A   Light Drizzle
4:33 PM 60.8 °F 51.8 °F 72% 29.98 in 10.0 mi Calm Calm - N/A Rain Light Rain
4:53 PM 59.0 °F 51.8 °F 77% 29.98 in 7.0 mi Calm Calm - N/A Rain Light Rain
5:13 PM 57.2 °F 48.2 °F 72% 29.97 in 10.0 mi Calm Calm - 0.01 in Rain Light Rain
5:33 PM 55.4 °F 50.0 °F 82% 29.96 in 7.0 mi East 3.5 mph - 0.02 in Rain Light Rain
5:53 PM 55.4 °F 50.0 °F 82% 29.96 in 10.0 mi Calm Calm - 0.03 in Rain Rain
6:13 PM 55.4 °F 51.8 °F 88% 29.95 in 7.0 mi Calm Calm - N/A Rain Light Rain
6:33 PM 55.4 °F 51.8 °F 88% 29.95 in 7.0 mi ENE 3.5 mph - 0.01 in Rain Rain
6:53 PM 53.6 °F 51.8 °F 94% 29.94 in 7.0 mi Calm Calm - 0.03 in Rain Rain
7:13 PM 53.6 °F 51.8 °F 94% 29.94 in 4.0 mi Calm Calm - 0.02 in Rain Rain
7:33 PM 53.6 °F 50.0 °F 88% 29.93 in 4.0 mi Calm Calm - 0.04 in Rain Rain
7:53 PM 53.6 °F 51.8 °F 94% 29.93 in 5.0 mi Calm Calm - 0.04 in   Drizzle
8:13 PM 53.6 °F 50.0 °F 88% 29.92 in 3.0 mi Calm Calm - 0.02 in Rain Rain
8:33 PM 53.6 °F 50.0 °F 88% 29.91 in 2.5 mi Calm Calm - 0.04 in Rain Rain
8:53 PM 53.6 °F 50.0 °F 88% 29.91 in 3.0 mi Calm Calm - 0.07 in Rain Rain
9:13 PM 53.6 °F 51.8 °F 94% 29.91 in 4.0 mi Calm Calm - 0.03 in Rain Rain
9:33 PM 53.6 °F 51.8 °F 94% 29.91 in 2.5 mi Calm Calm - 0.08 in Rain Heavy Rain
9:53 PM 53.6 °F 51.8 °F 94% 29.91 in 7.0 mi Calm Calm - 0.10 in Rain Rain
10:13 PM 53.6 °F 51.8 °F 94% 29.91 in 5.0 mi Calm Calm - 0.01 in Rain Light Rain
10:33 PM 53.6 °F 51.8 °F 94% 29.91 in 3.0 mi Calm Calm - 0.02 in Rain Rain
10:53 PM 53.6 °F 51.8 °F 94% 29.90 in 2.5 mi Calm Calm - 0.03 in   Drizzle
11:13 PM 51.8 °F 51.8 °F 100% 29.90 in 2.0 mi Calm Calm - N/A   Light Drizzle
11:33 PM 51.8 °F 51.8 °F 100% 29.89 in 10.0 mi Calm Calm - N/A   Overcast
11:53 PM 51.8 °F 51.8 °F 100% 29.89 in 10.0 mi Calm Calm - N/A   Overcast